Time;durP1;ratioP1;P1;durP2;ratioP2;P2;SDS_P1;SDS_P2;PMS_P1;PMS_P2;Temp;Humidity;BMP_temperature;BMP_pressure;BME280_temperature;BME280_humidity;BME280_pressure;Samples;Min_cycle;Max_cycle;Signal;HPM_P1;HPM_P2
2021/11/17 02:27:13;;;;;;;12.20;6.90;;;;;;;;;;5018051;28;20100;-79
2021/11/17 02:30:03;;;;;;;13.90;7.85;;;;;;;;;;5017354;28;20177;-79
2021/11/17 02:32:58;;;;;;;14.65;7.75;;;;;;;;;;5017814;28;20076;-79
2021/11/17 02:36:00;;;;;;;18.08;8.68;;;;;;;;;;5015900;28;20813;-81
2021/11/17 02:38:46;;;;;;;12.93;7.07;;;;;;;;;;5017267;28;20073;-80
2021/11/17 02:41:32;;;;;;;15.00;8.43;;;;;;;;;;5018337;28;20100;-80
2021/11/17 02:44:29;;;;;;;14.52;7.15;;;;;;;;;;5017652;28;20056;-80
2021/11/17 02:47:18;;;;;;;17.38;8.02;;;;;;;;;;5017543;28;20053;-81
2021/11/17 02:50:01;;;;;;;14.70;7.97;;;;;;;;;;5017636;28;20085;-80
2021/11/17 02:52:50;;;;;;;15.75;8.38;;;;;;;;;;5016846;28;20513;-81
2021/11/17 02:55:35;;;;;;;15.20;7.57;;;;;;;;;;5015456;28;20065;-81
2021/11/17 02:58:19;;;;;;;12.30;7.10;;;;;;;;;;5016506;28;20076;-81
2021/11/17 03:01:13;;;;;;;16.83;8.15;;;;;;;;;;5014123;28;20584;-81
2021/11/17 03:03:52;;;;;;;16.63;7.88;;;;;;;;;;5017863;28;20531;-81
2021/11/17 03:06:35;;;;;;;14.95;7.50;;;;;;;;;;5018576;28;20066;-81
2021/11/17 03:09:33;;;;;;;16.95;8.50;;;;;;;;;;5016427;28;20161;-80
2021/11/17 03:12:16;;;;;;;16.60;7.88;;;;;;;;;;5018030;28;20414;-80
2021/11/17 03:14:58;;;;;;;15.73;8.43;;;;;;;;;;5018221;28;20483;-80
2021/11/17 03:17:47;;;;;;;14.02;7.35;;;;;;;;;;5015839;28;20109;-80
2021/11/17 03:20:34;;;;;;;13.65;7.07;;;;;;;;;;5015722;28;20499;-80
2021/11/17 03:23:13;;;;;;;16.02;7.78;;;;;;;;;;5016704;28;20493;-81
2021/11/17 03:25:56;;;;;;;14.77;7.82;;;;;;;;;;5016990;28;20061;-81
2021/11/17 03:28:43;;;;;;;10.10;5.85;;;;;;;;;;5016715;28;20116;-80
2021/11/17 03:31:35;;;;;;;13.32;6.95;;;;;;;;;;5017822;28;20084;-80
2021/11/17 03:34:26;;;;;;;12.88;6.65;;;;;;;;;;5015102;28;20069;-81
2021/11/17 03:37:12;;;;;;;14.07;6.93;;;;;;;;;;5015408;28;20427;-81
2021/11/17 03:40:19;;;;;;;13.18;7.43;;;;;;;;;;5016182;28;20084;-81
2021/11/17 03:43:12;;;;;;;12.57;7.22;;;;;;;;;;5017070;28;20061;-81
2021/11/17 03:45:51;;;;;;;12.70;6.30;;;;;;;;;;5016645;28;20077;-80
2021/11/17 03:48:32;;;;;;;14.77;6.97;;;;;;;;;;5014560;28;20081;-80
2021/11/17 03:51:31;;;;;;;14.25;7.93;;;;;;;;;;5013897;28;20521;-80
2021/11/17 03:54:20;;;;;;;14.35;7.15;;;;;;;;;;5016984;28;20080;-80
2021/11/17 03:57:01;;;;;;;11.75;6.53;;;;;;;;;;5016630;28;20046;-81
2021/11/17 03:59:56;;;;;;;13.32;7.13;;;;;;;;;;5016426;28;20080;-81
2021/11/17 04:02:33;;;;;;;13.68;7.15;;;;;;;;;;5013722;28;20065;-81
2021/11/17 04:05:20;;;;;;;15.25;7.20;;;;;;;;;;5016744;28;20072;-80
2021/11/17 04:08:01;;;;;;;14.70;7.90;;;;;;;;;;5015699;28;20045;-80
2021/11/17 04:10:43;;;;;;;13.23;6.93;;;;;;;;;;5017219;28;20085;-81
2021/11/17 04:13:18;;;;;;;15.75;7.82;;;;;;;;;;5016651;28;20466;-81
2021/11/17 04:15:57;;;;;;;12.38;6.78;;;;;;;;;;5018343;28;20576;-80
2021/11/17 04:18:35;;;;;;;13.95;6.93;;;;;;;;;;5014884;28;20529;-81
2021/11/17 04:21:29;;;;;;;12.88;6.25;;;;;;;;;;5014397;28;20077;-81
2021/11/17 04:24:24;;;;;;;13.93;6.82;;;;;;;;;;5015319;28;20078;-80
2021/11/17 04:27:03;;;;;;;13.65;7.15;;;;;;;;;;5016111;28;20052;-81
2021/11/17 04:29:52;;;;;;;13.40;6.65;;;;;;;;;;5016016;28;20073;-81
2021/11/17 04:32:44;;;;;;;12.15;6.60;;;;;;;;;;5018880;28;20069;-81
2021/11/17 04:35:36;;;;;;;14.40;7.78;;;;;;;;;;5018038;28;20668;-81
2021/11/17 04:38:31;;;;;;;15.55;7.38;;;;;;;;;;5018901;28;20107;-81
2021/11/17 04:41:26;;;;;;;14.10;6.82;;;;;;;;;;5019999;28;20065;-80
2021/11/17 04:44:03;;;;;;;12.60;7.10;;;;;;;;;;5018897;28;20091;-80
2021/11/17 04:46:52;;;;;;;15.23;7.53;;;;;;;;;;5019057;28;20107;-81
2021/11/17 04:49:41;;;;;;;13.48;7.18;;;;;;;;;;5019289;28;20081;-80
2021/11/17 04:52:24;;;;;;;13.13;6.00;;;;;;;;;;5020225;28;20042;-79
2021/11/17 04:55:21;;;;;;;14.70;7.47;;;;;;;;;;5021237;28;20064;-80
2021/11/17 04:58:04;;;;;;;12.27;6.95;;;;;;;;;;5017317;28;20077;-80
2021/11/17 05:01:09;;;;;;;10.50;6.32;;;;;;;;;;5021453;28;20057;-81
2021/11/17 05:03:51;;;;;;;15.32;7.07;;;;;;;;;;5021913;28;20057;-83
2021/11/17 05:06:32;;;;;;;14.50;7.15;;;;;;;;;;5026726;28;20050;-79
2021/11/17 05:09:08;;;;;;;15.73;8.02;;;;;;;;;;5026263;28;20068;-83
2021/11/17 05:11:45;;;;;;;12.48;6.80;;;;;;;;;;5028832;28;20050;-82
2021/11/17 05:14:21;;;;;;;14.73;7.43;;;;;;;;;;5020510;28;20061;-78
2021/11/17 05:17:04;;;;;;;12.55;6.70;;;;;;;;;;5020094;28;20081;-80
2021/11/17 05:19:37;;;;;;;16.05;7.68;;;;;;;;;;5017434;28;20075;-81
2021/11/17 05:22:20;;;;;;;13.48;6.63;;;;;;;;;;5019456;28;20133;-79
2021/11/17 05:25:00;;;;;;;14.73;6.97;;;;;;;;;;5017185;28;20053;-80
2021/11/17 05:27:46;;;;;;;12.55;6.28;;;;;;;;;;5017370;28;20084;-79
2021/11/17 05:30:37;;;;;;;11.60;6.38;;;;;;;;;;5018895;28;20069;-80
2021/11/17 05:33:27;;;;;;;13.68;5.85;;;;;;;;;;5019280;28;20069;-84
2021/11/17 05:36:06;;;;;;;13.18;6.65;;;;;;;;;;5020654;28;20433;-80
2021/11/17 05:38:44;;;;;;;13.13;6.82;;;;;;;;;;5020458;28;20046;-80
2021/11/17 05:41:26;;;;;;;13.32;6.97;;;;;;;;;;5018034;28;20046;-80
2021/11/17 05:44:05;;;;;;;12.80;6.57;;;;;;;;;;5018830;28;20084;-80
2021/11/17 05:46:46;;;;;;;12.27;6.40;;;;;;;;;;5017641;28;20050;-82
2021/11/17 05:49:24;;;;;;;13.02;6.28;;;;;;;;;;5018868;28;20073;-82
2021/11/17 05:52:06;;;;;;;12.77;6.07;;;;;;;;;;5018485;28;20066;-83
2021/11/17 05:54:49;;;;;;;13.70;6.57;;;;;;;;;;5019109;28;20121;-82
2021/11/17 05:57:28;;;;;;;11.15;6.32;;;;;;;;;;5018400;28;20065;-81
2021/11/17 06:00:17;;;;;;;12.25;6.25;;;;;;;;;;5017446;28;20078;-81
2021/11/17 06:03:02;;;;;;;15.05;7.28;;;;;;;;;;5017658;28;20084;-82
2021/11/17 06:05:28;;;;;;;11.45;6.35;;;;;;;;;;5016855;28;20069;-81
2021/11/17 06:07:55;;;;;;;13.57;6.95;;;;;;;;;;5018653;28;20042;-82
2021/11/17 06:10:26;;;;;;;16.27;7.68;;;;;;;;;;5018663;28;20120;-81
2021/11/17 06:12:53;;;;;;;15.63;7.35;;;;;;;;;;5018057;28;20069;-80
2021/11/17 06:15:20;;;;;;;16.10;7.53;;;;;;;;;;5018372;28;20613;-80
2021/11/17 06:17:48;;;;;;;13.88;6.68;;;;;;;;;;5018835;28;20058;-82
2021/11/17 06:20:17;;;;;;;15.65;7.20;;;;;;;;;;5017836;28;20077;-82
2021/11/17 06:22:45;;;;;;;13.30;6.20;;;;;;;;;;5017311;28;20045;-82
2021/11/17 06:25:13;;;;;;;13.52;7.10;;;;;;;;;;5017865;28;20974;-81
2021/11/17 06:27:43;;;;;;;24.88;7.35;;;;;;;;;;5017398;28;20116;-82
2021/11/17 06:30:12;;;;;;;14.35;6.88;;;;;;;;;;5017410;28;20042;-81
2021/11/17 06:32:38;;;;;;;13.60;6.30;;;;;;;;;;5016914;28;20068;-81
2021/11/17 06:35:07;;;;;;;13.30;7.00;;;;;;;;;;5017379;28;20073;-81
2021/11/17 06:37:33;;;;;;;14.57;6.45;;;;;;;;;;5018557;28;20092;-84
2021/11/17 06:40:01;;;;;;;13.02;6.47;;;;;;;;;;5017236;28;20164;-81
2021/11/17 06:42:32;;;;;;;15.85;6.82;;;;;;;;;;5018671;28;20041;-82
2021/11/17 06:45:00;;;;;;;12.50;6.63;;;;;;;;;;5019584;28;20554;-82
2021/11/17 06:47:27;;;;;;;11.88;6.55;;;;;;;;;;5018443;28;20100;-82
2021/11/17 06:49:53;;;;;;;13.52;7.22;;;;;;;;;;5014893;28;20784;-80
2021/11/17 06:52:20;;;;;;;11.65;6.15;;;;;;;;;;5016421;28;20050;-80
2021/11/17 06:54:47;;;;;;;14.32;7.03;;;;;;;;;;5016271;28;20474;-81
2021/11/17 06:57:14;;;;;;;10.95;5.88;;;;;;;;;;5016416;28;20076;-81
2021/11/17 06:59:40;;;;;;;20.92;9.13;;;;;;;;;;5016351;28;20451;-81
2021/11/17 07:02:08;;;;;;;12.23;6.10;;;;;;;;;;5016788;28;20085;-81
2021/11/17 07:04:36;;;;;;;13.48;7.07;;;;;;;;;;5015773;28;20046;-81
2021/11/17 07:07:04;;;;;;;19.35;7.10;;;;;;;;;;5017419;28;20041;-80
2021/11/17 07:09:30;;;;;;;13.68;6.72;;;;;;;;;;5016214;28;20085;-80
2021/11/17 07:11:57;;;;;;;12.60;7.13;;;;;;;;;;5016825;28;20049;-80
2021/11/17 07:14:23;;;;;;;17.90;8.40;;;;;;;;;;5017017;28;20050;-80
2021/11/17 07:16:51;;;;;;;14.70;8.32;;;;;;;;;;5016737;28;20069;-81
2021/11/17 07:19:24;;;;;;;13.00;7.05;;;;;;;;;;5016538;28;20084;-81
2021/11/17 07:21:52;;;;;;;17.45;7.75;;;;;;;;;;5016305;28;20070;-81
2021/11/17 07:24:18;;;;;;;18.25;8.73;;;;;;;;;;5015722;28;20046;-82
2021/11/17 07:26:45;;;;;;;15.65;7.88;;;;;;;;;;5016552;28;20080;-81
2021/11/17 07:29:11;;;;;;;17.67;8.25;;;;;;;;;;5015847;28;20049;-81
2021/11/17 07:31:38;;;;;;;16.77;7.80;;;;;;;;;;5015623;28;20104;-80
2021/11/17 07:34:05;;;;;;;16.70;9.00;;;;;;;;;;5015212;28;20517;-80
2021/11/17 07:36:33;;;;;;;15.57;7.38;;;;;;;;;;5015626;28;20066;-80
2021/11/17 07:39:00;;;;;;;19.45;10.02;;;;;;;;;;5016130;28;20043;-81
2021/11/17 07:41:27;;;;;;;15.52;8.35;;;;;;;;;;5016888;28;20073;-81
2021/11/17 07:43:54;;;;;;;18.20;8.48;;;;;;;;;;5015236;28;20074;-81
2021/11/17 07:46:21;;;;;;;15.85;8.52;;;;;;;;;;5015089;28;20078;-81
2021/11/17 07:48:47;;;;;;;18.30;8.98;;;;;;;;;;5018459;28;20069;-82
2021/11/17 07:51:15;;;;;;;16.02;8.25;;;;;;;;;;5017820;28;20046;-82
2021/11/17 07:53:43;;;;;;;18.50;8.40;;;;;;;;;;5016010;28;20085;-81
2021/11/17 07:56:10;;;;;;;17.00;8.40;;;;;;;;;;5015415;28;20072;-81
2021/11/17 07:58:41;;;;;;;18.67;8.80;;;;;;;;;;5015340;28;20118;-82
2021/11/17 08:01:07;;;;;;;18.00;8.82;;;;;;;;;;5016569;28;20045;-80
2021/11/17 08:03:37;;;;;;;11.48;7.10;;;;;;;;;;5015741;28;20076;-81
2021/11/17 08:06:05;;;;;;;17.00;8.43;;;;;;;;;;5017231;28;20070;-82
2021/11/17 08:08:32;;;;;;;19.52;9.45;;;;;;;;;;5019262;28;20081;-81
2021/11/17 08:11:00;;;;;;;17.48;8.13;;;;;;;;;;5020151;28;20439;-82
2021/11/17 08:13:27;;;;;;;18.90;8.40;;;;;;;;;;5018645;28;20073;-81
2021/11/17 08:15:54;;;;;;;20.17;8.82;;;;;;;;;;5018988;28;20092;-81
2021/11/17 08:18:20;;;;;;;16.60;8.27;;;;;;;;;;5018987;28;20045;-80
2021/11/17 08:20:47;;;;;;;18.65;9.18;;;;;;;;;;5019689;28;20069;-81
2021/11/17 08:23:13;;;;;;;16.50;8.27;;;;;;;;;;5018770;28;20116;-80
2021/11/17 08:25:41;;;;;;;20.90;10.95;;;;;;;;;;5019558;28;20501;-81
2021/11/17 08:28:12;;;;;;;17.90;8.48;;;;;;;;;;5019648;28;21446;-81
2021/11/17 08:30:39;;;;;;;19.02;9.15;;;;;;;;;;5019281;28;20054;-80
2021/11/17 08:33:06;;;;;;;16.30;8.60;;;;;;;;;;5017909;28;20073;-80
2021/11/17 08:35:34;;;;;;;18.38;8.20;;;;;;;;;;5018972;28;20453;-81
2021/11/17 08:38:01;;;;;;;14.32;7.45;;;;;;;;;;5017861;28;20676;-82
2021/11/17 08:40:29;;;;;;;19.58;7.78;;;;;;;;;;5018822;28;20487;-80
2021/11/17 08:42:57;;;;;;;18.15;9.32;;;;;;;;;;5018236;28;20089;-81
2021/11/17 08:45:27;;;;;;;13.85;6.82;;;;;;;;;;5019021;28;20081;-81
2021/11/17 08:47:54;;;;;;;14.02;7.15;;;;;;;;;;5018491;28;20073;-81
2021/11/17 08:50:23;;;;;;;14.23;7.00;;;;;;;;;;5018680;28;20050;-81
2021/11/17 08:52:50;;;;;;;14.50;7.20;;;;;;;;;;5018098;28;20065;-80
2021/11/17 08:55:17;;;;;;;16.50;8.05;;;;;;;;;;5018997;28;20240;-80
2021/11/17 08:57:46;;;;;;;18.58;8.07;;;;;;;;;;5018198;28;20073;-80
2021/11/17 09:00:17;;;;;;;15.93;8.00;;;;;;;;;;5018736;28;20052;-79
2021/11/17 09:02:47;;;;;;;15.55;7.15;;;;;;;;;;5018117;28;20514;-81
2021/11/17 09:05:16;;;;;;;13.13;7.10;;;;;;;;;;5019030;28;20070;-80
2021/11/17 09:07:44;;;;;;;14.75;6.93;;;;;;;;;;5017577;28;20077;-81
2021/11/17 09:10:12;;;;;;;15.43;7.57;;;;;;;;;;5019171;28;20103;-80
2021/11/17 09:12:39;;;;;;;13.35;6.75;;;;;;;;;;5019256;28;20073;-81
2021/11/17 09:15:09;;;;;;;13.18;6.82;;;;;;;;;;5019105;28;20100;-79
2021/11/17 09:17:35;;;;;;;12.95;7.40;;;;;;;;;;5018100;28;20077;-81
2021/11/17 09:20:05;;;;;;;12.68;6.68;;;;;;;;;;5017205;28;20073;-80
2021/11/17 09:22:31;;;;;;;13.10;6.80;;;;;;;;;;5018257;28;20498;-81
2021/11/17 09:24:58;;;;;;;12.50;6.28;;;;;;;;;;5017413;28;20085;-80
2021/11/17 09:27:25;;;;;;;10.45;5.97;;;;;;;;;;5017832;28;20487;-81
2021/11/17 09:29:51;;;;;;;13.85;6.38;;;;;;;;;;5016627;28;20081;-82
2021/11/17 09:32:18;;;;;;;12.93;6.45;;;;;;;;;;5018856;28;20077;-80
2021/11/17 09:34:45;;;;;;;17.20;9.50;;;;;;;;;;5017952;28;20074;-81
2021/11/17 09:37:12;;;;;;;11.93;6.35;;;;;;;;;;5017491;28;20053;-81
2021/11/17 09:39:40;;;;;;;13.27;6.68;;;;;;;;;;5017538;28;20050;-81
2021/11/17 09:42:07;;;;;;;12.48;7.30;;;;;;;;;;5017760;28;20403;-81
2021/11/17 09:44:40;;;;;;;13.23;7.05;;;;;;;;;;5018554;28;20045;-82
2021/11/17 09:47:09;;;;;;;9.60;5.65;;;;;;;;;;5017039;28;20042;-81
2021/11/17 09:49:48;;;;;;;22.08;11.30;;;;;;;;;;5017565;28;20108;-80
2021/11/17 09:52:19;;;;;;;27.77;12.40;;;;;;;;;;5017105;28;20073;-80
2021/11/17 09:54:50;;;;;;;14.55;8.27;;;;;;;;;;5017371;28;20085;-80
2021/11/17 09:57:19;;;;;;;12.88;7.10;;;;;;;;;;5016447;28;20502;-81
2021/11/17 09:59:48;;;;;;;13.88;6.90;;;;;;;;;;5016797;28;20077;-81
2021/11/17 10:02:19;;;;;;;12.95;6.43;;;;;;;;;;5017096;28;20058;-82
2021/11/17 10:04:49;;;;;;;11.07;5.90;;;;;;;;;;5016936;28;20074;-80
2021/11/17 10:10:29;;;;;;;11.95;5.95;;;;;;;;;;5016562;28;20058;-81
2021/11/17 10:13:02;;;;;;;11.60;5.72;;;;;;;;;;5015921;28;20046;-81
2021/11/17 10:15:32;;;;;;;11.07;5.55;;;;;;;;;;5018644;28;20046;-82
2021/11/17 10:18:05;;;;;;;10.98;5.15;;;;;;;;;;5018414;28;20041;-81
2021/11/17 10:20:36;;;;;;;11.25;6.03;;;;;;;;;;5016884;28;20080;-79
2021/11/17 10:23:18;;;;;;;11.55;5.43;;;;;;;;;;5016469;28;20457;-80
2021/11/17 10:25:47;;;;;;;8.90;5.32;;;;;;;;;;5018302;28;20087;-81
2021/11/17 10:28:15;;;;;;;10.70;5.63;;;;;;;;;;5018404;28;20552;-82
2021/11/17 10:30:52;;;;;;;9.35;4.63;;;;;;;;;;5020387;28;20050;-81
2021/11/17 10:33:24;;;;;;;9.82;5.18;;;;;;;;;;5021694;28;20049;-80
2021/11/17 10:35:59;;;;;;;10.82;4.88;;;;;;;;;;5021180;28;20046;-79
2021/11/17 10:38:30;;;;;;;8.38;4.30;;;;;;;;;;5020300;28;20112;-82
2021/11/17 10:40:59;;;;;;;12.00;5.22;;;;;;;;;;5016597;28;20081;-82
2021/11/17 10:43:28;;;;;;;8.90;4.05;;;;;;;;;;5014735;28;20073;-83
2021/11/17 10:45:58;;;;;;;8.85;4.53;;;;;;;;;;5016912;28;20081;-80
2021/11/17 10:48:28;;;;;;;9.73;4.25;;;;;;;;;;5015927;28;20422;-81
2021/11/17 10:51:06;;;;;;;7.97;4.15;;;;;;;;;;5016496;28;20073;-81
2021/11/17 10:53:35;;;;;;;7.30;3.97;;;;;;;;;;5015907;28;20080;-81
2021/11/17 10:56:03;;;;;;;7.45;3.83;;;;;;;;;;5015827;28;20049;-81
2021/11/17 10:58:33;;;;;;;8.30;3.45;;;;;;;;;;5016204;28;21386;-81
2021/11/17 11:01:01;;;;;;;6.93;3.88;;;;;;;;;;5016418;28;20065;-81
2021/11/17 11:03:31;;;;;;;9.18;4.07;;;;;;;;;;5016061;28;20054;-81
2021/11/17 11:06:03;;;;;;;7.20;3.38;;;;;;;;;;5015986;28;20115;-81
2021/11/17 11:08:35;;;;;;;5.45;3.03;;;;;;;;;;5015306;28;20550;-81
2021/11/17 11:11:03;;;;;;;7.00;3.75;;;;;;;;;;5016256;28;20081;-80
2021/11/17 11:13:35;;;;;;;8.15;3.80;;;;;;;;;;5015039;28;20309;-81
2021/11/17 11:16:18;;;;;;;7.53;3.45;;;;;;;;;;5018419;28;20069;-81
2021/11/17 11:18:51;;;;;;;10.38;4.10;;;;;;;;;;5017576;28;20054;-80
2021/11/17 11:21:37;;;;;;;8.65;3.53;;;;;;;;;;5017012;28;20133;-80
2021/11/17 11:24:11;;;;;;;10.10;4.10;;;;;;;;;;5018353;28;20103;-81
2021/11/17 11:27:10;;;;;;;7.22;3.50;;;;;;;;;;5017247;28;20066;-83
2021/11/17 11:29:39;;;;;;;7.25;3.25;;;;;;;;;;5016363;28;20049;-83
2021/11/17 11:32:06;;;;;;;8.50;3.20;;;;;;;;;;5015136;28;20495;-81
2021/11/17 11:34:43;;;;;;;8.70;3.35;;;;;;;;;;5016393;28;20070;-82
2021/11/17 11:37:13;;;;;;;7.70;3.20;;;;;;;;;;5015443;28;20065;-80
2021/11/17 11:39:47;;;;;;;9.77;3.80;;;;;;;;;;5014174;28;20081;-81
2021/11/17 11:42:42;;;;;;;8.23;3.40;;;;;;;;;;5019527;28;20503;-81
2021/11/17 11:45:41;;;;;;;6.68;3.15;;;;;;;;;;5019638;28;20050;-80
2021/11/17 11:48:10;;;;;;;7.47;3.17;;;;;;;;;;5020394;28;20069;-82
2021/11/17 11:50:54;;;;;;;10.18;3.58;;;;;;;;;;5019486;28;20084;-80
2021/11/17 11:53:26;;;;;;;7.80;3.38;;;;;;;;;;5019210;28;20046;-81
2021/11/17 11:56:06;;;;;;;6.70;3.25;;;;;;;;;;5018958;28;20046;-80
2021/11/17 11:58:37;;;;;;;5.07;2.97;;;;;;;;;;5019032;28;20088;-80
2021/11/17 12:01:06;;;;;;;7.20;2.80;;;;;;;;;;5019251;28;20070;-79
2021/11/17 12:03:36;;;;;;;5.80;2.65;;;;;;;;;;5020182;28;20054;-81
2021/11/17 12:06:05;;;;;;;7.32;2.80;;;;;;;;;;5018894;28;20088;-81
2021/11/17 12:08:35;;;;;;;5.78;2.72;;;;;;;;;;5018320;28;20050;-81
2021/11/17 12:11:16;;;;;;;6.03;2.75;;;;;;;;;;5018696;28;20554;-81
2021/11/17 12:13:45;;;;;;;6.20;3.33;;;;;;;;;;5019086;28;20049;-81
2021/11/17 12:16:18;;;;;;;6.45;2.78;;;;;;;;;;5018951;28;20042;-82
2021/11/17 12:18:47;;;;;;;5.38;2.70;;;;;;;;;;5018840;28;20077;-81
2021/11/17 12:21:16;;;;;;;5.97;2.95;;;;;;;;;;5019798;28;20077;-81
2021/11/17 12:23:45;;;;;;;7.03;3.50;;;;;;;;;;5019885;28;20077;-84
2021/11/17 12:26:19;;;;;;;5.68;3.22;;;;;;;;;;5018331;28;20050;-81
2021/11/17 12:28:49;;;;;;;5.20;2.70;;;;;;;;;;5018795;28;20049;-81
2021/11/17 12:31:21;;;;;;;5.63;2.95;;;;;;;;;;5018766;28;20073;-81
2021/11/17 12:33:50;;;;;;;4.55;2.83;;;;;;;;;;5019429;28;20074;-81
2021/11/17 12:36:21;;;;;;;5.80;2.45;;;;;;;;;;5019137;28;20100;-81
2021/11/17 12:38:48;;;;;;;4.20;2.50;;;;;;;;;;5017989;28;20061;-81
2021/11/17 12:41:22;;;;;;;5.10;1.70;;;;;;;;;;5017904;28;20042;-81
2021/11/17 12:44:00;;;;;;;3.58;1.50;;;;;;;;;;5018657;28;20076;-81
2021/11/17 12:46:31;;;;;;;3.05;1.48;;;;;;;;;;5018616;28;20129;-82
2021/11/17 12:49:07;;;;;;;5.05;1.95;;;;;;;;;;5017749;28;20092;-80
2021/11/17 12:51:39;;;;;;;4.00;1.40;;;;;;;;;;5017048;28;20466;-82
2021/11/17 12:54:19;;;;;;;2.63;1.48;;;;;;;;;;5018393;28;20065;-82
2021/11/17 12:56:49;;;;;;;4.28;1.10;;;;;;;;;;5019176;28;20116;-80
2021/11/17 12:59:19;;;;;;;3.17;1.30;;;;;;;;;;5018316;28;20104;-80
2021/11/17 13:01:48;;;;;;;2.65;1.38;;;;;;;;;;5017191;28;20084;-81
2021/11/17 13:04:27;;;;;;;6.15;1.58;;;;;;;;;;5019193;28;20069;-81
2021/11/17 13:06:56;;;;;;;5.18;2.50;;;;;;;;;;5018329;28;20069;-80
2021/11/17 13:09:24;;;;;;;5.53;2.00;;;;;;;;;;5018178;28;20045;-81
2021/11/17 13:12:12;;;;;;;5.57;1.70;;;;;;;;;;5016654;28;20046;-81
2021/11/17 13:14:52;;;;;;;4.45;2.30;;;;;;;;;;5018021;28;20561;-82
2021/11/17 13:17:21;;;;;;;7.25;2.92;;;;;;;;;;5018507;28;20096;-81
2021/11/17 13:19:51;;;;;;;6.30;2.63;;;;;;;;;;5017737;28;20145;-82
2021/11/17 13:22:30;;;;;;;7.75;3.00;;;;;;;;;;5016706;28;20120;-82
2021/11/17 13:25:21;;;;;;;4.40;2.42;;;;;;;;;;5017416;28;20080;-81
2021/11/17 13:27:52;;;;;;;4.38;2.50;;;;;;;;;;5017702;28;20122;-81
2021/11/17 13:30:34;;;;;;;6.50;2.75;;;;;;;;;;5018261;28;20069;-81
2021/11/17 13:33:20;;;;;;;8.93;2.22;;;;;;;;;;5017345;28;20050;-82
2021/11/17 13:35:46;;;;;;;4.13;2.00;;;;;;;;;;5016225;28;20084;-81
2021/11/17 13:38:17;;;;;;;4.88;2.78;;;;;;;;;;5017033;28;20081;-81
2021/11/17 13:40:45;;;;;;;4.65;2.33;;;;;;;;;;5016732;28;21327;-81
2021/11/17 13:43:14;;;;;;;5.78;3.22;;;;;;;;;;5016615;28;20042;-81
2021/11/17 13:45:43;;;;;;;4.53;2.35;;;;;;;;;;5017661;28;20046;-80
2021/11/17 13:48:10;;;;;;;4.72;2.70;;;;;;;;;;5017803;28;20205;-82
2021/11/17 13:50:39;;;;;;;5.15;2.30;;;;;;;;;;5016453;28;20084;-80
2021/11/17 13:53:09;;;;;;;5.32;2.83;;;;;;;;;;5017427;28;20082;-82
2021/11/17 13:55:49;;;;;;;6.45;2.85;;;;;;;;;;5018954;28;20052;-82
2021/11/17 13:58:17;;;;;;;6.00;3.42;;;;;;;;;;5017901;28;20041;-80
2021/11/17 14:00:43;;;;;;;7.55;3.05;;;;;;;;;;5017811;28;20085;-82
2021/11/17 14:03:11;;;;;;;4.13;2.22;;;;;;;;;;5015795;28;20080;-82
2021/11/17 14:05:40;;;;;;;6.70;2.95;;;;;;;;;;5017378;28;20080;-83
2021/11/17 14:08:07;;;;;;;4.93;2.50;;;;;;;;;;5017419;28;20049;-82
2021/11/17 14:10:34;;;;;;;5.78;2.75;;;;;;;;;;5017060;28;20073;-81
2021/11/17 14:13:00;;;;;;;4.90;2.58;;;;;;;;;;5017052;28;20457;-82
2021/11/17 14:15:28;;;;;;;5.00;2.45;;;;;;;;;;5017772;28;20057;-81
2021/11/17 14:17:55;;;;;;;5.40;2.88;;;;;;;;;;5015932;28;20418;-82
2021/11/17 14:20:23;;;;;;;4.40;2.58;;;;;;;;;;5017098;28;20491;-81
2021/11/17 14:22:49;;;;;;;6.18;2.17;;;;;;;;;;5017230;28;20502;-81
2021/11/17 14:25:18;;;;;;;4.90;2.38;;;;;;;;;;5017090;28;20065;-81
2021/11/17 14:27:47;;;;;;;4.05;2.05;;;;;;;;;;5016754;28;20127;-81
2021/11/17 14:30:18;;;;;;;3.92;2.45;;;;;;;;;;5016715;28;20073;-82
2021/11/17 14:32:48;;;;;;;4.03;2.03;;;;;;;;;;5016642;28;20054;-81
2021/11/17 14:35:15;;;;;;;3.72;2.20;;;;;;;;;;5016898;28;20077;-80
2021/11/17 14:37:42;;;;;;;4.10;2.38;;;;;;;;;;5016092;28;20088;-81
2021/11/17 14:40:11;;;;;;;4.30;2.13;;;;;;;;;;5016986;28;20309;-82
2021/11/17 14:42:38;;;;;;;4.88;2.45;;;;;;;;;;5017086;28;20060;-81
2021/11/17 14:45:07;;;;;;;3.55;2.17;;;;;;;;;;5017124;28;20075;-82
2021/11/17 14:47:34;;;;;;;3.67;2.20;;;;;;;;;;5017778;28;20590;-83
2021/11/17 14:50:04;;;;;;;3.92;2.15;;;;;;;;;;5018807;28;20143;-82
2021/11/17 14:52:32;;;;;;;4.00;2.35;;;;;;;;;;5017517;28;20518;-80
2021/11/17 14:54:58;;;;;;;4.25;2.58;;;;;;;;;;5017102;28;20510;-82
2021/11/17 14:57:25;;;;;;;4.90;2.17;;;;;;;;;;5016565;28;20061;-80
2021/11/17 14:59:53;;;;;;;7.35;2.60;;;;;;;;;;5016800;28;20069;-82
2021/11/17 15:02:20;;;;;;;6.03;2.88;;;;;;;;;;5017117;28;20264;-81
2021/11/17 15:04:47;;;;;;;4.88;2.35;;;;;;;;;;5016258;28;20069;-81
2021/11/17 15:07:15;;;;;;;6.30;2.47;;;;;;;;;;5015698;28;20053;-82
2021/11/17 15:09:41;;;;;;;5.88;3.10;;;;;;;;;;5016452;28;20046;-83
2021/11/17 15:12:19;;;;;;;6.93;2.78;;;;;;;;;;5017994;28;20073;-81
2021/11/17 15:14:46;;;;;;;7.63;3.50;;;;;;;;;;5015059;28;20042;-81
2021/11/17 15:17:14;;;;;;;7.40;3.00;;;;;;;;;;5013071;28;20046;-80
2021/11/17 15:19:41;;;;;;;6.60;2.50;;;;;;;;;;5015872;28;20698;-80
2021/11/17 15:22:08;;;;;;;5.93;3.00;;;;;;;;;;5016324;28;20108;-81
2021/11/17 15:24:36;;;;;;;5.43;2.67;;;;;;;;;;5016165;28;20065;-81
2021/11/17 15:27:06;;;;;;;5.43;3.20;;;;;;;;;;5014685;28;20050;-81
2021/11/17 15:29:34;;;;;;;6.40;2.95;;;;;;;;;;5016027;28;20069;-81
2021/11/17 15:32:01;;;;;;;4.95;2.95;;;;;;;;;;5014781;28;20509;-82
2021/11/17 15:34:27;;;;;;;6.10;2.92;;;;;;;;;;5015048;28;20070;-83
2021/11/17 15:36:54;;;;;;;6.85;3.05;;;;;;;;;;5013611;28;20085;-81
2021/11/17 15:39:21;;;;;;;8.65;3.85;;;;;;;;;;5015949;28;20061;-81
2021/11/17 15:41:49;;;;;;;5.97;3.20;;;;;;;;;;5015108;28;20081;-81
2021/11/17 15:44:16;;;;;;;7.32;4.18;;;;;;;;;;5015063;28;20584;-82
2021/11/17 15:46:52;;;;;;;6.22;3.80;;;;;;;;;;5013115;28;20410;-82
2021/11/17 15:49:18;;;;;;;7.45;3.40;;;;;;;;;;5015356;28;20088;-82
2021/11/17 15:51:47;;;;;;;7.80;4.45;;;;;;;;;;5014929;28;20049;-80
2021/11/17 15:54:14;;;;;;;7.47;3.88;;;;;;;;;;5014735;28;20073;-82
2021/11/17 15:56:41;;;;;;;6.60;3.22;;;;;;;;;;5015350;28;20084;-81
2021/11/17 15:59:11;;;;;;;6.82;3.67;;;;;;;;;;5015675;28;20133;-81
2021/11/17 16:01:38;;;;;;;5.10;3.20;;;;;;;;;;5015842;28;20061;-80
2021/11/17 16:04:05;;;;;;;5.57;3.40;;;;;;;;;;5016808;28;20037;-81
2021/11/17 16:06:32;;;;;;;6.63;3.83;;;;;;;;;;5017086;28;20072;-79
2021/11/17 16:08:59;;;;;;;7.57;4.80;;;;;;;;;;5016680;28;21469;-82
2021/11/17 16:11:26;;;;;;;6.97;5.20;;;;;;;;;;5016332;28;20081;-81
2021/11/17 16:13:52;;;;;;;6.50;3.95;;;;;;;;;;5016198;28;20069;-82
2021/11/17 16:16:25;;;;;;;5.55;3.58;;;;;;;;;;5017876;28;20073;-81
2021/11/17 16:18:52;;;;;;;10.43;4.20;;;;;;;;;;5014867;28;20045;-83
2021/11/17 16:21:18;;;;;;;7.80;3.90;;;;;;;;;;5014293;28;20081;-82
2021/11/17 16:26:32;;;;;;;8.63;4.35;;;;;;;;;;5014164;28;20160;-81
2021/11/17 16:28:59;;;;;;;8.15;4.90;;;;;;;;;;5018205;28;20146;-81
2021/11/17 16:31:29;;;;;;;9.82;4.38;;;;;;;;;;5017408;28;20494;-81
2021/11/17 16:33:58;;;;;;;7.57;4.85;;;;;;;;;;5016401;28;20050;-81
2021/11/17 16:36:25;;;;;;;10.90;5.53;;;;;;;;;;5017268;28;20068;-81
2021/11/17 16:38:52;;;;;;;13.15;7.22;;;;;;;;;;5016343;28;20184;-82
2021/11/17 16:41:18;;;;;;;7.60;4.47;;;;;;;;;;5018209;28;20156;-80
2021/11/17 16:43:49;;;;;;;7.55;3.90;;;;;;;;;;5017852;28;20046;-80
2021/11/17 16:46:16;;;;;;;7.10;4.47;;;;;;;;;;5018375;28;20505;-81
2021/11/17 16:48:44;;;;;;;7.22;5.38;;;;;;;;;;5017928;28;20100;-82
2021/11/17 16:51:14;;;;;;;6.43;4.13;;;;;;;;;;5016834;28;20462;-81
2021/11/17 16:53:40;;;;;;;7.65;4.05;;;;;;;;;;5018788;28;20749;-81
2021/11/17 16:56:07;;;;;;;6.68;3.88;;;;;;;;;;5018489;28;20077;-82
2021/11/17 16:58:33;;;;;;;8.73;4.40;;;;;;;;;;5017592;28;20113;-80
2021/11/17 17:01:01;;;;;;;6.78;4.45;;;;;;;;;;5017529;28;20073;-80
2021/11/17 17:03:30;;;;;;;7.43;4.03;;;;;;;;;;5018673;28;20046;-82
2021/11/17 17:06:03;;;;;;;6.40;4.25;;;;;;;;;;5018137;28;20096;-83
2021/11/17 17:08:30;;;;;;;7.60;3.90;;;;;;;;;;5017368;28;20049;-81
2021/11/17 17:10:56;;;;;;;6.38;4.00;;;;;;;;;;5017276;28;20067;-80
2021/11/17 17:13:23;;;;;;;6.47;3.50;;;;;;;;;;5017705;28;20087;-82
2021/11/17 17:15:50;;;;;;;8.23;4.47;;;;;;;;;;5017364;28;20076;-82
2021/11/17 17:18:18;;;;;;;6.88;3.58;;;;;;;;;;5016018;28;20042;-83
2021/11/17 17:20:47;;;;;;;6.70;3.78;;;;;;;;;;5016327;28;20057;-84
2021/11/17 17:23:15;;;;;;;8.30;3.80;;;;;;;;;;5013344;28;20049;-82
2021/11/17 17:25:44;;;;;;;6.07;3.78;;;;;;;;;;5016210;28;20082;-81
2021/11/17 17:28:12;;;;;;;6.18;4.43;;;;;;;;;;5016695;28;20069;-81
2021/11/17 17:30:41;;;;;;;5.68;3.28;;;;;;;;;;5015416;28;20069;-83
2021/11/17 17:33:08;;;;;;;7.35;3.90;;;;;;;;;;5017896;28;20045;-83
2021/11/17 17:35:35;;;;;;;7.55;3.78;;;;;;;;;;5018049;28;20096;-82
2021/11/17 17:38:01;;;;;;;7.93;3.97;;;;;;;;;;5015020;28;20120;-84
2021/11/17 17:40:29;;;;;;;4.85;3.13;;;;;;;;;;5016549;28;20045;-82
2021/11/17 17:42:56;;;;;;;5.85;3.83;;;;;;;;;;5016224;28;20080;-82